createdAt,value
2019-03-15T00:00:44.012Z,2.20
2019-03-15T00:03:15.393Z,3.27
2019-03-15T00:05:48.698Z,2.83
2019-03-15T00:08:18.653Z,2.57
2019-03-15T00:10:57.369Z,2.87
2019-03-15T00:13:29.589Z,2.33
2019-03-15T00:16:37.502Z,2.67
2019-03-15T00:19:04.353Z,3.10
2019-03-15T00:21:34.266Z,2.60
2019-03-15T00:24:04.427Z,2.80
2019-03-15T00:26:33.852Z,2.60
2019-03-15T00:29:06.824Z,3.20
2019-03-15T00:31:46.192Z,3.60
2019-03-15T00:34:17.000Z,3.13
2019-03-15T00:36:48.393Z,2.60
2019-03-15T00:39:18.188Z,2.80
2019-03-15T00:41:48.747Z,2.40
2019-03-15T00:44:18.204Z,2.30
2019-03-15T00:46:49.730Z,2.63
2019-03-15T00:49:23.288Z,3.47
2019-03-15T00:51:53.245Z,3.67
2019-03-15T00:54:22.855Z,3.23
2019-03-15T00:56:52.924Z,2.90
2019-03-15T00:59:25.571Z,3.00
2019-03-15T01:01:59.599Z,2.80
2019-03-15T01:04:48.498Z,2.90
2019-03-15T01:07:19.630Z,2.90
2019-03-15T01:09:49.853Z,3.37
2019-03-15T01:12:20.286Z,2.97
2019-03-15T01:14:53.368Z,3.30
2019-03-15T01:17:24.113Z,2.63
2019-03-15T01:20:02.853Z,3.60
2019-03-15T01:22:47.581Z,3.23
2019-03-15T01:25:36.198Z,3.60
2019-03-15T01:28:05.807Z,3.20
2019-03-15T01:30:35.257Z,3.57
2019-03-15T01:33:07.855Z,2.90
2019-03-15T01:35:38.667Z,2.77
2019-03-15T01:38:13.856Z,3.30
2019-03-15T01:40:48.887Z,3.03
2019-03-15T01:43:18.145Z,4.30
2019-03-15T01:45:51.124Z,3.77
2019-03-15T01:48:20.540Z,3.90
2019-03-15T01:50:50.844Z,4.30
2019-03-15T01:53:23.487Z,3.53
2019-03-15T01:55:53.764Z,3.13
2019-03-15T01:58:38.878Z,3.13
2019-03-15T02:01:12.597Z,4.23
2019-03-15T02:03:45.404Z,3.40
2019-03-15T02:06:30.750Z,4.10
2019-03-15T02:09:03.176Z,3.73
2019-03-15T02:11:39.627Z,3.17
2019-03-15T02:14:10.518Z,4.17
2019-03-15T02:17:00.565Z,3.50
2019-03-15T02:19:40.602Z,3.93
2019-03-15T02:22:16.320Z,4.33
2019-03-15T02:25:01.486Z,3.40
2019-03-15T02:27:47.755Z,3.60
2019-03-15T02:30:20.716Z,3.77
2019-03-15T02:33:14.520Z,3.63
2019-03-15T02:35:59.311Z,3.23
2019-03-15T02:38:42.317Z,3.03
2019-03-15T02:41:14.650Z,3.43
2019-03-15T02:43:46.177Z,3.83
2019-03-15T02:46:19.317Z,3.67
2019-03-15T02:48:48.993Z,3.93
2019-03-15T02:51:18.466Z,3.73
2019-03-15T02:53:49.758Z,3.93
2019-03-15T02:56:19.131Z,4.63
2019-03-15T02:58:49.028Z,4.00
2019-03-15T03:01:18.568Z,4.70
2019-03-15T03:03:48.392Z,3.83
2019-03-15T03:06:20.748Z,4.27
2019-03-15T03:08:54.391Z,5.37
2019-03-15T03:11:38.246Z,4.00
2019-03-15T03:14:12.083Z,5.00
2019-03-15T03:16:41.586Z,3.93
2019-03-15T03:19:13.113Z,3.90
2019-03-15T03:21:43.130Z,3.73
2019-03-15T03:24:36.887Z,4.30
2019-03-15T03:27:36.126Z,3.67
2019-03-15T03:30:06.175Z,5.20
2019-03-15T03:32:43.675Z,4.03
2019-03-15T03:35:12.349Z,4.00
2019-03-15T03:37:52.785Z,3.10
2019-03-15T03:40:22.297Z,3.40
2019-03-15T03:43:01.766Z,3.93
2019-03-15T03:45:38.483Z,3.20
2019-03-15T03:48:08.725Z,2.93
2019-03-15T03:50:40.636Z,3.23
2019-03-15T03:53:15.607Z,1.77
2019-03-15T03:56:03.460Z,2.53
2019-03-15T03:58:34.063Z,2.23
2019-03-15T04:01:03.721Z,2.20
2019-03-15T04:03:35.502Z,2.20
2019-03-15T04:06:18.722Z,2.23
2019-03-15T04:08:49.851Z,2.50
2019-03-15T04:11:19.790Z,2.50
2019-03-15T04:13:53.081Z,2.57
2019-03-15T04:16:34.185Z,1.67
2019-03-15T04:19:12.742Z,2.87
2019-03-15T04:21:55.310Z,2.43
2019-03-15T04:24:34.180Z,1.87
2019-03-15T04:27:26.007Z,2.17
2019-03-15T04:29:56.442Z,1.97
2019-03-15T04:32:41.523Z,1.53
2019-03-15T04:35:11.627Z,2.03
2019-03-15T04:38:05.513Z,1.93
2019-03-15T04:41:00.841Z,1.37
2019-03-15T04:43:48.351Z,2.27
2019-03-15T04:46:27.195Z,1.30
2019-03-15T06:17:07.875Z,5.40
2019-03-15T06:19:49.319Z,4.83
2019-03-15T06:22:21.821Z,5.13
2019-03-15T06:25:05.308Z,4.63
2019-03-15T06:27:34.924Z,5.40
2019-03-15T06:30:05.361Z,6.17
2019-03-15T06:32:35.330Z,7.30
2019-03-15T06:35:29.650Z,7.50
2019-03-15T06:38:15.419Z,8.03
2019-03-15T06:40:45.150Z,9.93
2019-03-15T06:43:14.867Z,8.83
2019-03-15T06:45:44.359Z,8.83
2019-03-15T06:48:13.962Z,8.43
2019-03-15T06:50:46.385Z,8.73
2019-03-15T06:53:16.484Z,7.67
2019-03-15T06:55:45.929Z,8.03
2019-03-15T06:58:15.367Z,5.63
2019-03-15T07:00:45.124Z,5.40
2019-03-15T07:03:14.538Z,4.90
2019-03-15T07:05:43.858Z,5.80
2019-03-15T07:08:14.935Z,3.77
2019-03-15T07:10:44.506Z,3.27
2019-03-15T07:13:15.428Z,5.63
2019-03-15T07:15:44.883Z,5.10
2019-03-15T07:18:14.335Z,6.60
2019-03-15T07:20:43.770Z,5.83
2019-03-15T07:23:17.304Z,5.80
2019-03-15T07:25:47.166Z,6.47
2019-03-15T07:28:16.490Z,6.60
2019-03-15T07:30:52.149Z,7.07
2019-03-15T07:33:23.217Z,6.80
2019-03-15T07:35:52.771Z,7.67
2019-03-15T07:38:23.278Z,7.57
2019-03-15T07:40:55.059Z,6.93
2019-03-15T07:43:24.458Z,7.97
2019-03-15T07:45:56.543Z,7.03
2019-03-15T07:48:27.012Z,7.50
2019-03-15T07:50:56.667Z,7.80
2019-03-15T07:53:29.171Z,7.23
2019-03-15T07:56:00.059Z,8.67
2019-03-15T07:58:29.707Z,6.90
2019-03-15T08:01:04.498Z,7.93
2019-03-15T08:03:34.067Z,6.77
2019-03-15T08:06:04.955Z,6.27
2019-03-15T08:08:34.814Z,6.93
2019-03-15T08:11:06.313Z,6.30
2019-03-15T08:13:36.324Z,5.57
2019-03-15T08:16:07.409Z,5.10
2019-03-15T08:18:41.590Z,6.17
2019-03-15T08:21:16.740Z,5.97
2019-03-15T08:23:48.561Z,6.23
2019-03-15T08:26:23.269Z,5.10
2019-03-15T08:29:03.119Z,5.53
2019-03-15T08:31:34.421Z,6.13
2019-03-15T08:34:03.877Z,4.27
2019-03-15T08:36:33.166Z,5.03
2019-03-15T08:39:03.921Z,6.17
2019-03-15T08:41:36.621Z,4.93
2019-03-15T08:44:08.620Z,6.17
2019-03-15T08:46:38.364Z,4.10
2019-03-15T08:49:08.076Z,5.97
2019-03-15T08:51:37.478Z,4.33
2019-03-15T08:54:07.191Z,4.97
2019-03-15T08:56:36.794Z,4.97
2019-03-15T08:59:09.305Z,5.03
2019-03-15T09:01:38.750Z,5.63
2019-03-15T09:04:08.180Z,5.50
2019-03-15T09:06:40.710Z,5.43
2019-03-15T09:09:09.481Z,4.37
2019-03-15T09:11:38.786Z,5.73
2019-03-15T09:14:08.194Z,5.23
2019-03-15T09:16:37.630Z,5.13
2019-03-15T09:19:06.978Z,5.33
2019-03-15T09:21:36.437Z,4.43
2019-03-15T09:24:05.846Z,4.87
2019-03-15T09:26:35.310Z,4.60
2019-03-15T09:29:04.846Z,6.40
2019-03-15T09:31:47.025Z,5.40
2019-03-15T09:34:06.971Z,5.43
2019-03-15T09:36:49.012Z,4.93
2019-03-15T09:39:07.937Z,5.53
2019-03-15T09:41:40.347Z,4.07
2019-03-15T09:44:10.077Z,4.57
2019-03-15T09:46:40.612Z,4.53
2019-03-15T09:49:11.130Z,4.53
2019-03-15T09:51:40.562Z,4.80
2019-03-15T09:54:12.446Z,4.73
2019-03-15T09:56:42.314Z,5.87
2019-03-15T09:59:14.594Z,4.73
2019-03-15T10:01:44.039Z,3.73
2019-03-15T10:04:13.574Z,3.93
2019-03-15T10:06:43.417Z,5.23
2019-03-15T10:09:17.528Z,5.00
2019-03-15T10:11:47.399Z,4.63
2019-03-15T10:14:17.145Z,5.63
2019-03-15T10:16:46.897Z,4.10
2019-03-15T10:19:16.370Z,5.03
2019-03-15T10:21:46.789Z,4.73
2019-03-15T10:24:17.883Z,5.70
2019-03-15T10:26:47.266Z,4.43
2019-03-15T10:29:19.553Z,5.03
2019-03-15T10:31:47.891Z,5.70
2019-03-15T10:34:22.427Z,4.90
2019-03-15T10:36:52.218Z,4.80
2019-03-15T10:39:24.693Z,6.67
2019-03-15T10:41:54.177Z,4.87
2019-03-15T10:44:31.931Z,5.33
2019-03-15T10:47:01.192Z,4.90
2019-03-15T10:49:36.785Z,4.07
2019-03-15T10:52:11.816Z,5.10
2019-03-15T10:54:42.387Z,4.77
2019-03-15T10:57:14.883Z,5.03
2019-03-15T10:59:47.241Z,4.80
2019-03-15T11:02:17.464Z,3.80
2019-03-15T11:04:49.002Z,4.47
2019-03-15T11:07:25.487Z,3.97
2019-03-15T11:09:58.334Z,4.57
2019-03-15T11:12:28.418Z,4.50
2019-03-15T11:14:58.052Z,4.97
2019-03-15T11:17:28.194Z,4.43
2019-03-15T11:20:02.217Z,6.37
2019-03-15T11:22:31.905Z,5.63
2019-03-15T11:25:01.462Z,5.67
2019-03-15T11:27:31.594Z,4.63
2019-03-15T11:30:01.852Z,4.63
2019-03-15T11:32:31.734Z,4.43
2019-03-15T11:35:01.461Z,4.57
2019-03-15T11:37:33.430Z,4.37
2019-03-15T11:40:03.279Z,6.20
2019-03-15T11:42:33.365Z,4.40
2019-03-15T11:45:02.779Z,4.20
2019-03-15T11:47:46.363Z,4.63
2019-03-15T11:50:08.138Z,4.40
2019-03-15T11:52:52.250Z,4.83
2019-03-15T11:55:24.088Z,4.60
2019-03-15T11:57:55.489Z,4.77
2019-03-15T12:00:25.740Z,4.77
2019-03-15T12:03:04.280Z,5.00
2019-03-15T12:05:36.861Z,5.13
2019-03-15T12:08:06.482Z,4.40
2019-03-15T12:10:36.264Z,4.03
2019-03-15T12:13:06.096Z,4.23
2019-03-15T12:15:36.481Z,4.57
2019-03-15T12:18:14.041Z,4.30
2019-03-15T12:20:44.294Z,4.00
2019-03-15T12:23:13.801Z,4.57
2019-03-15T12:25:43.870Z,4.27
2019-03-15T12:28:17.124Z,4.10
2019-03-15T12:30:47.245Z,3.80
2019-03-15T12:33:16.911Z,4.33
2019-03-15T12:35:49.723Z,5.00
2019-03-15T12:38:22.740Z,4.60
2019-03-15T12:40:52.264Z,4.70
2019-03-15T12:43:35.478Z,3.60
2019-03-15T12:46:10.247Z,4.53
2019-03-15T12:48:40.783Z,4.53
2019-03-15T12:51:10.609Z,4.40
2019-03-15T12:53:42.099Z,4.27
2019-03-15T12:56:11.873Z,6.13
2019-03-15T12:58:42.109Z,4.50
2019-03-15T13:01:13.041Z,5.00
2019-03-15T13:03:47.295Z,5.67
2019-03-15T13:06:26.523Z,5.70
2019-03-15T13:09:03.819Z,5.30
2019-03-15T13:11:40.435Z,4.50
2019-03-15T13:14:12.323Z,5.63
2019-03-15T13:16:43.955Z,4.70
2019-03-15T13:19:17.266Z,5.83
2019-03-15T13:21:51.568Z,5.07
2019-03-15T13:24:21.105Z,5.37
2019-03-15T13:27:06.644Z,5.80
2019-03-15T13:29:32.305Z,5.60
2019-03-15T13:31:59.101Z,6.93
2019-03-15T13:34:32.596Z,5.63
2019-03-15T13:37:02.037Z,6.00
2019-03-15T13:39:40.423Z,6.30
2019-03-15T13:42:10.630Z,6.47
2019-03-15T13:44:40.211Z,6.43
2019-03-15T13:50:06.086Z,7.47
2019-03-15T13:52:36.264Z,7.13
2019-03-15T13:55:09.399Z,6.80
2019-03-15T13:57:48.123Z,6.40
2019-03-15T14:00:19.402Z,5.97
2019-03-15T14:02:54.964Z,6.27
2019-03-15T14:05:25.043Z,7.13
2019-03-15T14:07:54.531Z,6.70
2019-03-15T14:10:26.869Z,8.17
2019-03-15T14:12:59.083Z,7.33
2019-03-15T14:15:29.625Z,6.50
2019-03-15T14:18:02.201Z,6.63
2019-03-15T14:20:31.741Z,7.17
2019-03-15T14:23:01.331Z,6.90
2019-03-15T14:25:31.035Z,6.00
2019-03-15T14:28:09.441Z,7.17
2019-03-15T14:30:41.583Z,5.33
2019-03-15T14:33:10.949Z,7.23
2019-03-15T14:35:51.838Z,7.83
2019-03-15T14:38:21.440Z,7.40
2019-03-15T14:40:58.255Z,7.97
2019-03-15T14:43:27.827Z,6.10
2019-03-15T14:45:57.464Z,5.60
2019-03-15T14:48:34.242Z,7.23
2019-03-15T14:51:18.216Z,6.27
2019-03-15T14:53:53.065Z,8.57
2019-03-15T14:56:27.230Z,7.47
2019-03-15T14:58:57.012Z,6.77
2019-03-15T15:01:26.714Z,7.47
2019-03-15T15:03:56.322Z,7.20
2019-03-15T15:06:28.849Z,7.77
2019-03-15T15:08:58.306Z,6.60
2019-03-15T15:11:27.811Z,7.40
2019-03-15T15:13:57.205Z,6.63
2019-03-15T15:16:29.770Z,6.90
2019-03-15T15:18:58.822Z,6.07
2019-03-15T15:21:28.167Z,6.20
2019-03-15T15:23:57.867Z,6.00
2019-03-15T15:26:30.440Z,5.60
2019-03-15T15:28:59.942Z,7.43
2019-03-15T15:31:29.880Z,4.50
2019-03-15T15:33:59.239Z,5.97
2019-03-15T15:36:28.659Z,5.50
2019-03-15T15:38:58.109Z,5.87
2019-03-15T15:41:27.813Z,5.47
2019-03-15T15:43:57.207Z,5.20
2019-03-15T15:46:29.554Z,5.50
2019-03-15T15:48:58.998Z,5.13
2019-03-15T15:51:28.452Z,5.47
2019-03-15T15:53:57.964Z,4.77
2019-03-15T15:56:30.374Z,4.30
2019-03-15T15:59:03.321Z,4.53
2019-03-15T16:01:35.401Z,5.17
2019-03-15T16:04:04.774Z,5.40
2019-03-15T16:06:34.183Z,4.77
2019-03-15T16:09:04.112Z,4.20
2019-03-15T16:11:33.619Z,5.07
2019-03-15T16:14:07.334Z,5.80
2019-03-15T16:16:36.762Z,5.50
2019-03-15T16:19:06.463Z,6.23
2019-03-15T16:21:39.448Z,5.93
2019-03-15T16:24:08.826Z,6.60
2019-03-15T16:26:38.729Z,5.97
2019-03-15T16:29:08.343Z,6.10
2019-03-15T16:31:38.907Z,6.07
2019-03-15T16:34:08.510Z,6.30
2019-03-15T16:36:37.898Z,6.00
2019-03-15T16:39:08.194Z,5.50
2019-03-15T16:41:40.931Z,6.30
2019-03-15T16:44:18.863Z,6.63
2019-03-15T16:46:48.317Z,7.70
2019-03-15T16:49:17.964Z,5.53
2019-03-15T16:51:49.745Z,5.90
2019-03-15T16:54:25.506Z,5.83
2019-03-15T16:56:58.666Z,5.83
2019-03-15T16:59:43.572Z,4.83
2019-03-15T17:02:13.449Z,5.43
2019-03-15T17:04:43.254Z,5.00
2019-03-15T17:07:17.477Z,5.07
2019-03-15T17:09:49.976Z,5.97
2019-03-15T17:12:23.958Z,5.67
2019-03-15T17:14:54.900Z,5.13
2019-03-15T17:17:33.912Z,4.77
2019-03-15T17:20:34.623Z,4.53
2019-03-15T17:26:36.973Z,5.10
2019-03-15T17:29:23.666Z,4.60
2019-03-15T17:32:04.648Z,3.97
2019-03-15T17:35:00.566Z,4.73
2019-03-15T17:37:36.419Z,4.43
2019-03-15T17:40:34.844Z,4.47
2019-03-15T17:43:07.959Z,3.87
2019-03-15T17:45:39.101Z,3.70
2019-03-15T17:48:15.435Z,3.83
2019-03-15T17:50:47.178Z,5.27
2019-03-15T17:53:17.143Z,4.37
2019-03-15T17:55:51.423Z,3.30
2019-03-15T17:58:29.131Z,3.90
2019-03-15T18:01:09.356Z,3.07
2019-03-15T18:03:42.713Z,4.37
2019-03-15T18:06:12.319Z,4.00
2019-03-15T18:08:41.994Z,3.60
2019-03-15T18:11:11.539Z,3.33
2019-03-15T18:13:44.261Z,3.97
2019-03-15T18:16:13.871Z,2.77
2019-03-15T18:18:46.281Z,3.20
2019-03-15T18:21:19.415Z,3.20
2019-03-15T18:23:49.344Z,2.50
2019-03-15T18:26:35.368Z,2.93
2019-03-15T18:29:07.632Z,4.03
2019-03-15T18:31:37.215Z,3.07
2019-03-15T18:34:06.726Z,3.33
2019-03-15T18:36:37.707Z,2.90
2019-03-15T18:39:08.750Z,3.23
2019-03-15T18:41:38.295Z,2.57
2019-03-15T18:44:07.842Z,2.13
2019-03-15T18:46:51.912Z,4.00
2019-03-15T18:49:26.082Z,4.13
2019-03-15T18:52:36.820Z,6.87
2019-03-15T18:55:57.953Z,5.27
2019-03-15T19:01:52.793Z,3.40
2019-03-15T19:07:12.652Z,2.93
2019-03-15T19:10:15.032Z,2.77
2019-03-15T19:13:07.923Z,2.67
2019-03-15T19:15:58.470Z,2.63
2019-03-15T19:18:35.092Z,3.53
2019-03-15T19:21:14.181Z,3.20
2019-03-15T19:23:47.759Z,2.40
2019-03-15T19:26:19.835Z,3.80
2019-03-15T19:28:53.195Z,2.73
2019-03-15T19:31:32.818Z,2.93
2019-03-15T19:34:28.071Z,3.73
2019-03-15T19:37:01.146Z,3.73
2019-03-15T19:39:30.746Z,3.10
2019-03-15T19:42:02.649Z,2.63
2019-03-15T19:44:34.132Z,3.20
2019-03-15T19:47:56.494Z,3.13
2019-03-15T19:50:30.065Z,3.87
2019-03-15T19:53:07.088Z,3.60
2019-03-15T19:55:39.355Z,3.37
2019-03-15T19:58:08.958Z,3.63
2019-03-15T20:01:28.957Z,2.90
2019-03-15T20:04:01.353Z,3.60
2019-03-15T20:06:33.881Z,2.90
2019-03-15T20:09:06.166Z,3.00
2019-03-15T20:11:36.323Z,2.93
2019-03-15T20:14:08.526Z,4.27
2019-03-15T20:16:38.142Z,3.60
2019-03-15T20:19:11.949Z,2.77
2019-03-15T20:21:41.551Z,2.67
2019-03-15T20:24:14.134Z,2.87
2019-03-15T20:26:45.888Z,2.77
2019-03-15T20:29:15.522Z,3.40
2019-03-15T20:31:48.070Z,2.90
2019-03-15T20:34:20.756Z,2.63
2019-03-15T20:36:58.445Z,2.67
2019-03-15T22:01:16.109Z,1.47
2019-03-15T22:04:02.624Z,2.13
2019-03-15T22:07:00.346Z,1.60
2019-03-15T22:10:13.871Z,1.50
2019-03-15T22:13:35.017Z,2.13
2019-03-15T22:16:22.922Z,1.40
2019-03-15T22:22:03.460Z,1.80
